sensor_id;sensor_type;location;lat;lon;timestamp;pressure;altitude;pressure_sealevel;temperature;humidity
50774;BME280;36745;48.544;8.918;2022-12-07T00:02:04;97381.22;;;3.62;99.59
50774;BME280;36745;48.544;8.918;2022-12-07T00:05:24;97378.91;;;3.61;99.99
50774;BME280;36745;48.544;8.918;2022-12-07T00:08:44;97380.44;;;3.65;99.94
50774;BME280;36745;48.544;8.918;2022-12-07T00:12:04;97377.72;;;3.65;99.37
50774;BME280;36745;48.544;8.918;2022-12-07T00:15:24;97378.13;;;3.60;99.62
50774;BME280;36745;48.544;8.918;2022-12-07T00:18:45;97377.34;;;3.56;99.57
50774;BME280;36745;48.544;8.918;2022-12-07T00:22:05;97374.59;;;3.63;99.70
50774;BME280;36745;48.544;8.918;2022-12-07T00:25:25;97373.44;;;3.64;99.61
50774;BME280;36745;48.544;8.918;2022-12-07T00:28:53;97368.78;;;3.54;99.72
50774;BME280;36745;48.544;8.918;2022-12-07T00:32:13;97371.09;;;3.52;100.00
50774;BME280;36745;48.544;8.918;2022-12-07T00:35:33;97363.34;;;3.54;100.00
50774;BME280;36745;48.544;8.918;2022-12-07T00:38:58;97364.50;;;3.60;100.00
50774;BME280;36745;48.544;8.918;2022-12-07T00:42:18;97363.72;;;3.56;100.00
50774;BME280;36745;48.544;8.918;2022-12-07T00:45:37;97360.22;;;3.56;100.00
50774;BME280;36745;48.544;8.918;2022-12-07T00:48:57;97356.69;;;3.59;100.00
50774;BME280;36745;48.544;8.918;2022-12-07T00:52:17;97356.31;;;3.60;100.00
50774;BME280;36745;48.544;8.918;2022-12-07T00:55:37;97362.94;;;3.59;100.00
50774;BME280;36745;48.544;8.918;2022-12-07T00:59:00;97356.72;;;3.55;99.93
50774;BME280;36745;48.544;8.918;2022-12-07T01:02:26;97365.66;;;3.52;99.95
50774;BME280;36745;48.544;8.918;2022-12-07T01:05:50;97363.34;;;3.51;100.00
50774;BME280;36745;48.544;8.918;2022-12-07T01:09:11;97356.72;;;3.48;100.00
50774;BME280;36745;48.544;8.918;2022-12-07T01:12:31;97357.88;;;3.47;100.00
50774;BME280;36745;48.544;8.918;2022-12-07T01:15:50;97359.44;;;3.48;99.78
50774;BME280;36745;48.544;8.918;2022-12-07T01:19:10;97362.56;;;3.47;100.00
50774;BME280;36745;48.544;8.918;2022-12-07T01:22:30;97363.72;;;3.49;99.81
50774;BME280;36745;48.544;8.918;2022-12-07T01:25:55;97370.34;;;3.52;100.00
50774;BME280;36745;48.544;8.918;2022-12-07T01:29:15;97375.78;;;3.55;100.00
50774;BME280;36745;48.544;8.918;2022-12-07T01:32:35;97372.28;;;3.58;100.00
50774;BME280;36745;48.544;8.918;2022-12-07T01:36:46;97372.28;;;3.55;100.00
50774;BME280;36745;48.544;8.918;2022-12-07T01:39:40;97374.22;;;3.58;100.00
50774;BME280;36745;48.544;8.918;2022-12-07T01:43:00;97377.34;;;3.49;100.00
50774;BME280;36745;48.544;8.918;2022-12-07T01:46:20;97368.78;;;3.47;100.00
50774;BME280;36745;48.544;8.918;2022-12-07T01:49:46;97371.13;;;3.49;100.00
50774;BME280;36745;48.544;8.918;2022-12-07T01:53:09;97374.25;;;3.47;100.00
50774;BME280;36745;48.544;8.918;2022-12-07T01:56:30;97376.59;;;3.45;100.00
50774;BME280;36745;48.544;8.918;2022-12-07T01:59:52;97368.03;;;3.43;100.00
50774;BME280;36745;48.544;8.918;2022-12-07T02:03:29;97378.91;;;3.43;100.00
50774;BME280;36745;48.544;8.918;2022-12-07T02:06:50;97374.63;;;3.49;100.00
50774;BME280;36745;48.544;8.918;2022-12-07T02:10:20;97378.91;;;3.54;100.00
50774;BME280;36745;48.544;8.918;2022-12-07T02:13:41;97378.91;;;3.50;100.00
50774;BME280;36745;48.544;8.918;2022-12-07T02:17:17;97383.16;;;3.58;100.00
50774;BME280;36745;48.544;8.918;2022-12-07T02:20:57;97374.22;;;3.61;100.00
50774;BME280;36745;48.544;8.918;2022-12-07T02:31:32;97392.94;;;3.49;98.13
50774;BME280;36745;48.544;8.918;2022-12-07T02:35:04;97387.13;;;3.08;97.00
50774;BME280;36745;48.544;8.918;2022-12-07T02:42:14;97373.47;;;2.86;96.96
50774;BME280;36745;48.544;8.918;2022-12-07T02:45:38;97385.94;;;2.80;97.20
50774;BME280;36745;48.544;8.918;2022-12-07T02:48:59;97396.06;;;2.80;97.46
50774;BME280;36745;48.544;8.918;2022-12-07T02:52:20;97389.81;;;2.69;97.56
50774;BME280;36745;48.544;8.918;2022-12-07T02:55:41;97384.34;;;2.58;97.27
50774;BME280;36745;48.544;8.918;2022-12-07T02:59:12;97383.19;;;2.59;98.36
50774;BME280;36745;48.544;8.918;2022-12-07T03:02:57;97379.66;;;2.51;98.51
50774;BME280;36745;48.544;8.918;2022-12-07T03:06:31;97377.38;;;2.64;97.55
50774;BME280;36745;48.544;8.918;2022-12-07T03:17:05;97373.44;;;2.37;99.22
50774;BME280;36745;48.544;8.918;2022-12-07T03:20:26;97374.19;;;2.34;99.03
50774;BME280;36745;48.544;8.918;2022-12-07T03:23:52;97364.84;;;2.28;99.45
50774;BME280;36745;48.544;8.918;2022-12-07T03:27:16;97358.63;;;2.24;99.37
50774;BME280;36745;48.544;8.918;2022-12-07T03:30:49;97362.50;;;2.23;99.68
50774;BME280;36745;48.544;8.918;2022-12-07T03:34:14;97364.84;;;2.24;100.00
50774;BME280;36745;48.544;8.918;2022-12-07T03:37:51;97357.06;;;2.23;100.00
50774;BME280;36745;48.544;8.918;2022-12-07T03:41:18;97354.75;;;2.21;100.00
50774;BME280;36745;48.544;8.918;2022-12-07T03:44:40;97354.72;;;2.18;100.00
50774;BME280;36745;48.544;8.918;2022-12-07T03:48:27;97352.38;;;2.13;100.00
50774;BME280;36745;48.544;8.918;2022-12-07T03:55:39;97350.44;;;2.17;100.00
50774;BME280;36745;48.544;8.918;2022-12-07T03:59:01;97365.59;;;2.18;100.00
50774;BME280;36745;48.544;8.918;2022-12-07T04:02:21;97359.75;;;2.12;100.00
50774;BME280;36745;48.544;8.918;2022-12-07T04:05:42;97363.25;;;2.13;100.00
50774;BME280;36745;48.544;8.918;2022-12-07T04:09:03;97364.03;;;2.09;100.00
50774;BME280;36745;48.544;8.918;2022-12-07T04:12:22;97359.75;;;2.08;100.00
50774;BME280;36745;48.544;8.918;2022-12-07T04:15:42;97360.16;;;2.10;100.00
50774;BME280;36745;48.544;8.918;2022-12-07T04:19:02;97358.59;;;2.09;100.00
50774;BME280;36745;48.544;8.918;2022-12-07T04:22:22;97356.66;;;2.14;100.00
50774;BME280;36745;48.544;8.918;2022-12-07T04:25:42;97350.84;;;2.19;100.00
50774;BME280;36745;48.544;8.918;2022-12-07T04:29:01;97346.97;;;2.27;100.00
50774;BME280;36745;48.544;8.918;2022-12-07T04:32:22;97342.69;;;2.29;100.00
50774;BME280;36745;48.544;8.918;2022-12-07T04:35:42;97341.50;;;2.23;100.00
50774;BME280;36745;48.544;8.918;2022-12-07T04:39:03;97344.22;;;2.20;100.00
50774;BME280;36745;48.544;8.918;2022-12-07T04:42:23;97338.41;;;2.25;100.00
50774;BME280;36745;48.544;8.918;2022-12-07T04:45:47;97340.72;;;2.23;100.00
50774;BME280;36745;48.544;8.918;2022-12-07T04:49:07;97340.72;;;2.16;100.00
50774;BME280;36745;48.544;8.918;2022-12-07T04:52:27;97356.63;;;2.06;100.00
50774;BME280;36745;48.544;8.918;2022-12-07T04:55:46;97345.38;;;2.11;100.00
50774;BME280;36745;48.544;8.918;2022-12-07T04:59:07;97342.25;;;2.09;100.00
50774;BME280;36745;48.544;8.918;2022-12-07T05:02:27;97334.47;;;2.04;100.00
50774;BME280;36745;48.544;8.918;2022-12-07T05:05:47;97343.38;;;1.94;100.00
50774;BME280;36745;48.544;8.918;2022-12-07T05:09:06;97337.13;;;1.83;100.00
50774;BME280;36745;48.544;8.918;2022-12-07T05:12:26;97346.75;;;1.70;100.00
50774;BME280;36745;48.544;8.918;2022-12-07T05:15:47;97344.81;;;1.67;100.00
50774;BME280;36745;48.544;8.918;2022-12-07T05:19:08;97341.31;;;1.66;100.00
50774;BME280;36745;48.544;8.918;2022-12-07T05:22:28;97343.56;;;1.50;100.00
50774;BME280;36745;48.544;8.918;2022-12-07T05:25:48;97354.34;;;1.36;100.00
50774;BME280;36745;48.544;8.918;2022-12-07T05:29:10;97332.53;;;1.25;100.00
50774;BME280;36745;48.544;8.918;2022-12-07T05:32:29;97326.25;;;1.14;100.00
50774;BME280;36745;48.544;8.918;2022-12-07T05:35:49;97331.59;;;1.00;100.00
50774;BME280;36745;48.544;8.918;2022-12-07T05:39:09;97331.97;;;0.95;100.00
50774;BME280;36745;48.544;8.918;2022-12-07T05:42:29;97337.75;;;0.90;100.00
50774;BME280;36745;48.544;8.918;2022-12-07T05:45:49;97328.81;;;0.90;100.00
50774;BME280;36745;48.544;8.918;2022-12-07T05:49:09;97325.38;;;0.96;100.00
50774;BME280;36745;48.544;8.918;2022-12-07T05:52:28;97327.75;;;1.01;100.00
50774;BME280;36745;48.544;8.918;2022-12-07T05:55:48;97323.75;;;0.88;100.00
50774;BME280;36745;48.544;8.918;2022-12-07T05:59:08;97327.59;;;0.80;100.00
50774;BME280;36745;48.544;8.918;2022-12-07T06:02:43;97329.81;;;0.71;100.00
50774;BME280;36745;48.544;8.918;2022-12-07T06:06:03;97332.53;;;0.71;100.00
50774;BME280;36745;48.544;8.918;2022-12-07T06:09:24;97325.09;;;0.61;100.00
50774;BME280;36745;48.544;8.918;2022-12-07T06:12:44;97330.84;;;0.52;100.00
50774;BME280;36745;48.544;8.918;2022-12-07T06:16:05;97335.03;;;0.43;100.00
50774;BME280;36745;48.544;8.918;2022-12-07T06:19:25;97341.66;;;0.49;100.00
50774;BME280;36745;48.544;8.918;2022-12-07T06:22:45;97340.44;;;0.43;100.00
50774;BME280;36745;48.544;8.918;2022-12-07T06:26:05;97345.78;;;0.35;100.00
50774;BME280;36745;48.544;8.918;2022-12-07T06:29:25;97346.00;;;0.20;100.00
50774;BME280;36745;48.544;8.918;2022-12-07T06:32:45;97357.97;;;0.15;100.00
50774;BME280;36745;48.544;8.918;2022-12-07T06:36:05;97352.50;;;0.12;100.00
50774;BME280;36745;48.544;8.918;2022-12-07T06:39:27;97356.84;;;0.16;100.00
50774;BME280;36745;48.544;8.918;2022-12-07T06:42:47;97353.78;;;0.21;100.00
50774;BME280;36745;48.544;8.918;2022-12-07T06:46:07;97358.88;;;0.26;100.00
50774;BME280;36745;48.544;8.918;2022-12-07T06:49:27;97360.50;;;0.34;100.00
50774;BME280;36745;48.544;8.918;2022-12-07T06:52:46;97356.59;;;0.32;100.00
50774;BME280;36745;48.544;8.918;2022-12-07T06:56:06;97353.25;;;0.46;100.00
50774;BME280;36745;48.544;8.918;2022-12-07T06:59:26;97364.97;;;0.57;100.00
50774;BME280;36745;48.544;8.918;2022-12-07T07:02:46;97373.09;;;0.57;100.00
50774;BME280;36745;48.544;8.918;2022-12-07T07:06:06;97369.63;;;0.60;100.00
50774;BME280;36745;48.544;8.918;2022-12-07T07:09:26;97373.47;;;0.55;100.00
50774;BME280;36745;48.544;8.918;2022-12-07T07:12:46;97378.53;;;0.57;100.00
50774;BME280;36745;48.544;8.918;2022-12-07T07:16:07;97376.63;;;0.61;100.00
50774;BME280;36745;48.544;8.918;2022-12-07T07:19:27;97382.53;;;0.70;100.00
50774;BME280;36745;48.544;8.918;2022-12-07T07:22:46;97375.16;;;0.70;100.00
50774;BME280;36745;48.544;8.918;2022-12-07T07:26:06;97381.78;;;0.73;100.00
50774;BME280;36745;48.544;8.918;2022-12-07T07:29:26;97383.44;;;0.84;100.00
50774;BME280;36745;48.544;8.918;2022-12-07T07:32:46;97381.13;;;0.87;100.00
50774;BME280;36745;48.544;8.918;2022-12-07T07:36:06;97368.75;;;0.89;100.00
50774;BME280;36745;48.544;8.918;2022-12-07T07:39:25;97374.97;;;0.93;100.00
50774;BME280;36745;48.544;8.918;2022-12-07T07:42:53;97368.06;;;1.03;100.00
50774;BME280;36745;48.544;8.918;2022-12-07T07:46:12;97370.47;;;1.11;100.00
50774;BME280;36745;48.544;8.918;2022-12-07T07:49:32;97370.91;;;1.17;100.00
50774;BME280;36745;48.544;8.918;2022-12-07T07:52:52;97383.34;;;1.21;100.00
50774;BME280;36745;48.544;8.918;2022-12-07T07:56:12;97381.41;;;1.25;100.00
50774;BME280;36745;48.544;8.918;2022-12-07T07:59:32;97386.91;;;1.33;100.00
50774;BME280;36745;48.544;8.918;2022-12-07T08:02:52;97390.84;;;1.39;100.00
50774;BME280;36745;48.544;8.918;2022-12-07T08:06:12;97387.00;;;1.47;100.00
50774;BME280;36745;48.544;8.918;2022-12-07T08:09:31;97392.47;;;1.54;100.00
50774;BME280;36745;48.544;8.918;2022-12-07T08:12:51;97392.13;;;1.59;100.00
50774;BME280;36745;48.544;8.918;2022-12-07T08:16:29;97392.97;;;1.70;100.00
50774;BME280;36745;48.544;8.918;2022-12-07T08:19:49;97394.22;;;1.83;100.00
50774;BME280;36745;48.544;8.918;2022-12-07T08:23:10;97395.47;;;2.03;100.00
50774;BME280;36745;48.544;8.918;2022-12-07T08:26:29;97397.41;;;2.06;100.00
50774;BME280;36745;48.544;8.918;2022-12-07T08:29:49;97386.59;;;2.21;100.00
50774;BME280;36745;48.544;8.918;2022-12-07T08:33:10;97392.84;;;2.39;100.00
50774;BME280;36745;48.544;8.918;2022-12-07T08:36:29;97390.50;;;2.30;100.00
50774;BME280;36745;48.544;8.918;2022-12-07T08:39:49;97391.28;;;2.38;100.00
50774;BME280;36745;48.544;8.918;2022-12-07T08:43:09;97390.56;;;2.51;100.00
50774;BME280;36745;48.544;8.918;2022-12-07T08:46:43;97400.69;;;2.62;100.00
50774;BME280;36745;48.544;8.918;2022-12-07T08:50:06;97394.47;;;2.68;100.00
50774;BME280;36745;48.544;8.918;2022-12-07T08:53:28;97391.34;;;2.59;100.00
50774;BME280;36745;48.544;8.918;2022-12-07T08:56:48;97383.59;;;2.68;100.00
50774;BME280;36745;48.544;8.918;2022-12-07T09:00:11;97393.69;;;2.71;100.00
50774;BME280;36745;48.544;8.918;2022-12-07T09:03:31;97391.78;;;2.75;100.00
50774;BME280;36745;48.544;8.918;2022-12-07T09:06:50;97393.72;;;2.82;100.00
50774;BME280;36745;48.544;8.918;2022-12-07T09:10:11;97389.81;;;2.86;100.00
50774;BME280;36745;48.544;8.918;2022-12-07T09:13:30;97394.50;;;2.89;100.00
50774;BME280;36745;48.544;8.918;2022-12-07T09:16:50;97391.41;;;3.02;100.00
50774;BME280;36745;48.544;8.918;2022-12-07T09:20:10;97389.06;;;2.89;100.00
50774;BME280;36745;48.544;8.918;2022-12-07T09:23:30;97392.94;;;2.92;100.00
50774;BME280;36745;48.544;8.918;2022-12-07T09:26:51;97399.56;;;3.02;100.00
50774;BME280;36745;48.544;8.918;2022-12-07T09:30:11;97396.44;;;3.14;100.00
50774;BME280;36745;48.544;8.918;2022-12-07T09:33:31;97396.06;;;3.12;100.00
50774;BME280;36745;48.544;8.918;2022-12-07T09:36:52;97396.84;;;3.19;100.00
50774;BME280;36745;48.544;8.918;2022-12-07T09:40:13;97394.50;;;3.25;99.49
50774;BME280;36745;48.544;8.918;2022-12-07T09:43:35;97392.56;;;3.18;99.27
50774;BME280;36745;48.544;8.918;2022-12-07T09:46:56;97401.50;;;3.47;99.81
50774;BME280;36745;48.544;8.918;2022-12-07T09:50:23;97387.50;;;3.45;98.25
50774;BME280;36745;48.544;8.918;2022-12-07T09:53:44;97377.34;;;3.53;99.10
50774;BME280;36745;48.544;8.918;2022-12-07T09:57:04;97367.94;;;3.82;98.97
50774;BME280;36745;48.544;8.918;2022-12-07T10:00:25;97370.22;;;3.98;98.27
50774;BME280;36745;48.544;8.918;2022-12-07T10:03:53;97372.97;;;3.91;96.74
50774;BME280;36745;48.544;8.918;2022-12-07T10:07:14;97367.84;;;4.00;97.22
50774;BME280;36745;48.544;8.918;2022-12-07T10:10:34;97365.53;;;3.98;94.98
50774;BME280;36745;48.544;8.918;2022-12-07T10:14:11;97353.78;;;4.12;96.74
50774;BME280;36745;48.544;8.918;2022-12-07T10:17:39;97356.56;;;4.05;94.63
50774;BME280;36745;48.544;8.918;2022-12-07T10:21:20;97349.06;;;4.16;94.86
50774;BME280;36745;48.544;8.918;2022-12-07T10:24:41;97349.06;;;4.16;94.60
50774;BME280;36745;48.544;8.918;2022-12-07T10:28:08;97345.97;;;4.21;94.04
50774;BME280;36745;48.544;8.918;2022-12-07T10:31:30;97346.34;;;4.16;92.97
50774;BME280;36745;48.544;8.918;2022-12-07T10:34:49;97347.91;;;4.20;93.67
50774;BME280;36745;48.544;8.918;2022-12-07T10:38:16;97340.47;;;4.25;93.39
50774;BME280;36745;48.544;8.918;2022-12-07T10:41:53;97336.19;;;4.23;92.91
50774;BME280;36745;48.544;8.918;2022-12-07T10:45:18;97334.94;;;4.42;92.97
50774;BME280;36745;48.544;8.918;2022-12-07T10:48:45;97338.47;;;4.32;92.10
50774;BME280;36745;48.544;8.918;2022-12-07T10:56:15;97326.31;;;4.47;92.32
50774;BME280;36745;48.544;8.918;2022-12-07T11:03:31;97319.25;;;4.53;91.96
50774;BME280;36745;48.544;8.918;2022-12-07T11:07:15;97317.69;;;4.52;91.04
50774;BME280;36745;48.544;8.918;2022-12-07T11:18:03;97305.16;;;4.62;90.02
50774;BME280;36745;48.544;8.918;2022-12-07T11:21:45;97298.00;;;4.75;90.73
50774;BME280;36745;48.544;8.918;2022-12-07T11:36:37;97283.81;;;4.94;89.16
50774;BME280;36745;48.544;8.918;2022-12-07T11:40:05;97277.88;;;5.06;89.51
50774;BME280;36745;48.544;8.918;2022-12-07T11:43:34;97274.66;;;5.15;88.56
50774;BME280;36745;48.544;8.918;2022-12-07T11:47:08;97268.06;;;5.09;88.22
50774;BME280;36745;48.544;8.918;2022-12-07T11:53:59;97261.53;;;4.99;87.23
50774;BME280;36745;48.544;8.918;2022-12-07T11:57:36;97262.34;;;4.93;87.11
50774;BME280;36745;48.544;8.918;2022-12-07T12:05:06;97251.09;;;4.91;86.45
50774;BME280;36745;48.544;8.918;2022-12-07T12:12:40;97248.25;;;5.01;87.03
50774;BME280;36745;48.544;8.918;2022-12-07T12:16:19;97251.78;;;4.98;86.39
50774;BME280;36745;48.544;8.918;2022-12-07T12:23:11;97242.34;;;5.03;86.42
50774;BME280;36745;48.544;8.918;2022-12-07T12:26:35;97237.22;;;5.12;86.99
50774;BME280;36745;48.544;8.918;2022-12-07T12:29:59;97235.91;;;5.24;86.38
50774;BME280;36745;48.544;8.918;2022-12-07T12:33:31;97233.41;;;5.36;86.86
50774;BME280;36745;48.544;8.918;2022-12-07T12:36:52;97230.34;;;5.34;85.86
50774;BME280;36745;48.544;8.918;2022-12-07T12:47:51;97223.22;;;5.06;86.07
50774;BME280;36745;48.544;8.918;2022-12-07T12:51:38;97214.75;;;5.31;86.08
50774;BME280;36745;48.544;8.918;2022-12-07T12:55:13;97219.81;;;5.29;85.77
50774;BME280;36745;48.544;8.918;2022-12-07T12:58:37;97215.47;;;5.35;85.80
50774;BME280;36745;48.544;8.918;2022-12-07T13:05:35;97203.28;;;5.43;85.14
50774;BME280;36745;48.544;8.918;2022-12-07T13:08:57;97206.72;;;5.47;85.06
50774;BME280;36745;48.544;8.918;2022-12-07T13:12:19;97192.34;;;5.43;84.43
50774;BME280;36745;48.544;8.918;2022-12-07T13:15:39;97191.16;;;5.44;84.40
50774;BME280;36745;48.544;8.918;2022-12-07T13:18:59;97189.41;;;5.58;84.72
50774;BME280;36745;48.544;8.918;2022-12-07T13:29:37;97177.13;;;5.42;84.72
50774;BME280;36745;48.544;8.918;2022-12-07T13:32:58;97187.97;;;5.49;84.90
50774;BME280;36745;48.544;8.918;2022-12-07T13:36:22;97182.63;;;5.39;83.64
50774;BME280;36745;48.544;8.918;2022-12-07T13:39:51;97181.03;;;5.41;83.51
50774;BME280;36745;48.544;8.918;2022-12-07T13:43:15;97176.22;;;5.53;84.34
50774;BME280;36745;48.544;8.918;2022-12-07T13:50:39;97175.75;;;5.27;83.01
50774;BME280;36745;48.544;8.918;2022-12-07T13:54:09;97171.84;;;5.28;83.44
50774;BME280;36745;48.544;8.918;2022-12-07T13:57:31;97169.97;;;5.22;83.31
50774;BME280;36745;48.544;8.918;2022-12-07T14:00:54;97167.50;;;5.31;83.33
50774;BME280;36745;48.544;8.918;2022-12-07T14:04:37;97176.28;;;5.45;83.76
50774;BME280;36745;48.544;8.918;2022-12-07T14:08:02;97173.97;;;5.44;83.32
50774;BME280;36745;48.544;8.918;2022-12-07T14:11:22;97179.59;;;5.33;83.39
50774;BME280;36745;48.544;8.918;2022-12-07T14:14:47;97171.88;;;5.25;83.36
50774;BME280;36745;48.544;8.918;2022-12-07T14:18:26;97168.72;;;5.26;83.50
50774;BME280;36745;48.544;8.918;2022-12-07T14:21:46;97167.63;;;5.20;83.20
50774;BME280;36745;48.544;8.918;2022-12-07T14:28:35;97178.28;;;5.11;83.45
50774;BME280;36745;48.544;8.918;2022-12-07T14:31:57;97171.63;;;5.12;83.71
50774;BME280;36745;48.544;8.918;2022-12-07T14:35:18;97178.72;;;5.06;83.81
50774;BME280;36745;48.544;8.918;2022-12-07T14:38:38;97174.50;;;4.98;83.21
50774;BME280;36745;48.544;8.918;2022-12-07T14:41:58;97171.44;;;4.96;83.57
50774;BME280;36745;48.544;8.918;2022-12-07T14:45:20;97177.34;;;4.91;83.45
50774;BME280;36745;48.544;8.918;2022-12-07T14:48:40;97171.56;;;4.82;83.76
50774;BME280;36745;48.544;8.918;2022-12-07T14:52:00;97169.94;;;4.88;83.71
50774;BME280;36745;48.544;8.918;2022-12-07T14:55:30;97168.47;;;4.80;83.55
50774;BME280;36745;48.544;8.918;2022-12-07T14:58:50;97170.50;;;4.72;83.97
50774;BME280;36745;48.544;8.918;2022-12-07T15:02:12;97171.81;;;4.57;84.40
50774;BME280;36745;48.544;8.918;2022-12-07T15:05:32;97170.31;;;4.49;84.75
50774;BME280;36745;48.544;8.918;2022-12-07T15:08:52;97168.78;;;4.48;84.87
50774;BME280;36745;48.544;8.918;2022-12-07T15:12:12;97171.53;;;4.44;85.09
50774;BME280;36745;48.544;8.918;2022-12-07T15:15:31;97173.56;;;4.37;85.26
50774;BME280;36745;48.544;8.918;2022-12-07T15:18:51;97172.75;;;4.40;84.72
50774;BME280;36745;48.544;8.918;2022-12-07T15:22:11;97164.97;;;4.35;84.35
50774;BME280;36745;48.544;8.918;2022-12-07T15:25:31;97167.38;;;4.29;84.50
50774;BME280;36745;48.544;8.918;2022-12-07T15:28:53;97165.81;;;4.28;84.87
50774;BME280;36745;48.544;8.918;2022-12-07T15:32:13;97169.78;;;4.20;85.43
50774;BME280;36745;48.544;8.918;2022-12-07T15:35:33;97167.81;;;4.24;85.32
50774;BME280;36745;48.544;8.918;2022-12-07T15:38:53;97168.22;;;4.19;84.92
50774;BME280;36745;48.544;8.918;2022-12-07T15:42:13;97175.25;;;4.16;85.45
50774;BME280;36745;48.544;8.918;2022-12-07T15:45:33;97170.25;;;4.08;85.39
50774;BME280;36745;48.544;8.918;2022-12-07T15:48:53;97169.56;;;3.97;85.86
50774;BME280;36745;48.544;8.918;2022-12-07T15:52:12;97170.41;;;3.87;86.40
50774;BME280;36745;48.544;8.918;2022-12-07T15:55:32;97170.00;;;3.92;86.81
50774;BME280;36745;48.544;8.918;2022-12-07T15:58:52;97173.09;;;3.90;86.62
50774;BME280;36745;48.544;8.918;2022-12-07T16:02:12;97174.63;;;3.95;86.39
50774;BME280;36745;48.544;8.918;2022-12-07T16:05:31;97164.53;;;3.92;86.57
50774;BME280;36745;48.544;8.918;2022-12-07T16:08:52;97163.03;;;3.80;86.42
50774;BME280;36745;48.544;8.918;2022-12-07T16:12:13;97165.84;;;3.69;87.36
50774;BME280;36745;48.544;8.918;2022-12-07T16:15:38;97158.47;;;3.66;87.30
50774;BME280;36745;48.544;8.918;2022-12-07T16:18:57;97163.94;;;3.66;87.99
50774;BME280;36745;48.544;8.918;2022-12-07T16:22:17;97166.56;;;3.80;87.17
50774;BME280;36745;48.544;8.918;2022-12-07T16:25:37;97168.56;;;3.69;87.60
50774;BME280;36745;48.544;8.918;2022-12-07T16:28:57;97162.34;;;3.69;88.28
50774;BME280;36745;48.544;8.918;2022-12-07T16:32:17;97159.94;;;3.82;87.75
50774;BME280;36745;48.544;8.918;2022-12-07T16:35:39;97162.69;;;3.74;87.84
50774;BME280;36745;48.544;8.918;2022-12-07T16:39:21;97162.34;;;3.72;88.61
50774;BME280;36745;48.544;8.918;2022-12-07T16:42:41;97158.38;;;3.80;88.83
50774;BME280;36745;48.544;8.918;2022-12-07T16:46:02;97160.69;;;3.86;88.40
50774;BME280;36745;48.544;8.918;2022-12-07T16:49:23;97154.88;;;3.80;88.96
50774;BME280;36745;48.544;8.918;2022-12-07T16:52:43;97152.94;;;3.77;89.30
50774;BME280;36745;48.544;8.918;2022-12-07T16:56:03;97146.34;;;3.74;89.08
50774;BME280;36745;48.544;8.918;2022-12-07T16:59:23;97147.50;;;3.73;88.98
50774;BME280;36745;48.544;8.918;2022-12-07T17:02:43;97142.06;;;3.73;89.10
50774;BME280;36745;48.544;8.918;2022-12-07T17:06:03;97131.56;;;3.68;89.49
50774;BME280;36745;48.544;8.918;2022-12-07T17:09:22;97137.84;;;3.62;89.58
50774;BME280;36745;48.544;8.918;2022-12-07T17:12:42;97129.72;;;3.51;89.63
50774;BME280;36745;48.544;8.918;2022-12-07T17:16:05;97129.75;;;3.48;89.46
50774;BME280;36745;48.544;8.918;2022-12-07T17:19:25;97131.28;;;3.52;88.71
50774;BME280;36745;48.544;8.918;2022-12-07T17:22:46;97127.00;;;3.51;88.63
50774;BME280;36745;48.544;8.918;2022-12-07T17:26:06;97122.00;;;3.43;88.27
50774;BME280;36745;48.544;8.918;2022-12-07T17:29:26;97126.34;;;3.33;87.81
50774;BME280;36745;48.544;8.918;2022-12-07T17:32:46;97115.91;;;3.14;88.40
50774;BME280;36745;48.544;8.918;2022-12-07T17:36:15;97117.88;;;3.10;89.03
50774;BME280;36745;48.544;8.918;2022-12-07T17:39:34;97121.34;;;3.14;88.92
50774;BME280;36745;48.544;8.918;2022-12-07T17:42:54;97122.16;;;3.11;89.43
50774;BME280;36745;48.544;8.918;2022-12-07T17:46:14;97119.78;;;3.23;89.20
50774;BME280;36745;48.544;8.918;2022-12-07T17:49:34;97121.34;;;3.21;88.79
50774;BME280;36745;48.544;8.918;2022-12-07T17:52:54;97112.03;;;3.15;89.32
50774;BME280;36745;48.544;8.918;2022-12-07T17:56:28;97105.03;;;3.10;89.55
50774;BME280;36745;48.544;8.918;2022-12-07T17:59:48;97108.97;;;2.99;89.47
50774;BME280;36745;48.544;8.918;2022-12-07T18:03:09;97110.19;;;2.87;90.05
50774;BME280;36745;48.544;8.918;2022-12-07T18:06:30;97116.06;;;2.78;90.00
50774;BME280;36745;48.544;8.918;2022-12-07T18:09:50;97112.94;;;2.76;90.57
50774;BME280;36745;48.544;8.918;2022-12-07T18:13:10;97118.44;;;2.69;90.53
50774;BME280;36745;48.544;8.918;2022-12-07T18:16:48;97114.97;;;2.58;90.80
50774;BME280;36745;48.544;8.918;2022-12-07T18:20:08;97115.75;;;2.48;90.15
50774;BME280;36745;48.544;8.918;2022-12-07T18:23:28;97113.03;;;2.41;91.16
50774;BME280;36745;48.544;8.918;2022-12-07T18:26:48;97116.53;;;2.38;91.31
50774;BME280;36745;48.544;8.918;2022-12-07T18:30:08;97113.06;;;2.30;91.35
50774;BME280;36745;48.544;8.918;2022-12-07T18:33:28;97110.72;;;2.29;91.43
50774;BME280;36745;48.544;8.918;2022-12-07T18:36:48;97112.28;;;2.23;90.61
50774;BME280;36745;48.544;8.918;2022-12-07T18:40:12;97114.22;;;2.22;90.72
50774;BME280;36745;48.544;8.918;2022-12-07T18:43:32;97110.75;;;2.15;90.81
50774;BME280;36745;48.544;8.918;2022-12-07T18:46:54;97110.75;;;2.04;91.65
50774;BME280;36745;48.544;8.918;2022-12-07T18:50:14;97115.44;;;1.93;91.66
50774;BME280;36745;48.544;8.918;2022-12-07T18:53:34;97114.25;;;2.01;90.45
50774;BME280;36745;48.544;8.918;2022-12-07T18:56:53;97118.53;;;2.02;90.40
50774;BME280;36745;48.544;8.918;2022-12-07T19:00:14;97125.13;;;2.01;90.03
50774;BME280;36745;48.544;8.918;2022-12-07T19:03:34;97118.13;;;1.89;90.14
50774;BME280;36745;48.544;8.918;2022-12-07T19:06:54;97130.56;;;1.90;90.37
50774;BME280;36745;48.544;8.918;2022-12-07T19:10:14;97120.84;;;1.82;91.02
50774;BME280;36745;48.544;8.918;2022-12-07T19:13:33;97114.66;;;1.78;91.53
50774;BME280;36745;48.544;8.918;2022-12-07T19:16:55;97108.41;;;1.85;90.87
50774;BME280;36745;48.544;8.918;2022-12-07T19:20:18;97111.53;;;1.76;90.81
50774;BME280;36745;48.544;8.918;2022-12-07T19:23:38;97105.72;;;1.67;91.32
50774;BME280;36745;48.544;8.918;2022-12-07T19:26:58;97113.88;;;1.67;91.00
50774;BME280;36745;48.544;8.918;2022-12-07T19:30:18;97106.88;;;1.66;91.59
50774;BME280;36745;48.544;8.918;2022-12-07T19:33:38;97108.41;;;1.71;91.12